Katherine Berry — WDD5997 — position and weather

sailwx.info

Track history (hours):
 
Tides and Currents Weather Stations Pressure Air Temp Water Temp Dewpoint Dewpoint Depression Visibility Wind Speed Wind Dir Waves Ship Positions

Katherine Berry

Owner: Magnolia Marine Transport Co., Vicksburg, MS. More information available from US FCC via Universal Licensing System and Coast Guard Vessel Documentation Center.

Last reported at 2018-Apr-22 07:57 UTC. Time now 2018-Apr-24 12:42 UTC.
Position N 38°36' W 090°12'.

Length 34 m; draft 2.6 m.

Type: Towing. MMSI: 367166940.

Date/timePositionNaut miles runAvg speedWind from/ knotsBaromVisibWave heightAir tempDewpointWater temp
2018-Apr-22 07:57N 38°36' W 090°12'4 9.8
2018-Apr-22 07:30N 38°40' W 090°11'2 3.1
2018-Apr-22 06:50N 38°42' W 090°11'0 1.1
2018-Apr-22 06:30N 38°42' W 090°11'2 3.5
2018-Apr-22 06:00N 38°44' W 090°10'0 0.8
2018-Apr-22 05:30N 38°44' W 090°09'0 0.2
2018-Apr-22 05:00N 38°44' W 090°09'0 0.1
2018-Apr-22 04:29N 38°44' W 090°09'0 0.1
2018-Apr-22 04:00N 38°44' W 090°09'1 2.8
2018-Apr-22 03:30N 38°46' W 090°08'4 7.1
2018-Apr-22 03:00N 38°49' W 090°07'2 4.4
2018-Apr-22 02:30N 38°51' W 090°07'0 0.0
2018-Apr-22 02:00N 38°51' W 090°07'0 0.7
2018-Apr-22 01:30N 38°51' W 090°07'0 0.6
2018-Apr-22 01:00N 38°51' W 090°07'0 0.1
2018-Apr-22 00:30N 38°51' W 090°07'0 0.3
2018-Apr-22 00:00N 38°51' W 090°07'0 0.1
2018-Apr-21 23:28N 38°51' W 090°07'0 1.0
2018-Apr-21 23:00N 38°51' W 090°07'3 5.5
2018-Apr-21 22:30N 38°48' W 090°07'4 6.9
2018-Apr-21 21:58N 38°45' W 090°09'2 0.7
2018-Apr-21 19:13N 38°43' W 090°10'0 0.0
2018-Apr-21 18:40N 38°43' W 090°10'0 0.0
2018-Apr-21 18:22N 38°43' W 090°10'0 0.0
2018-Apr-21 17:58N 38°43' W 090°10'0 0.0
2018-Apr-21 17:28N 38°43' W 090°10'0 0.0
2018-Apr-21 16:58N 38°43' W 090°10'0 0.0
2018-Apr-21 16:28N 38°43' W 090°10'0 0.0
2018-Apr-21 15:40N 38°43' W 090°10'0 0.0
2018-Apr-21 15:28N 38°43' W 090°10'0 0.0
2018-Apr-21 14:58N 38°43' W 090°10'0 0.0
2018-Apr-21 14:28N 38°43' W 090°10'0 0.0
2018-Apr-21 13:58N 38°43' W 090°10'0 0.0
2018-Apr-21 13:25N 38°43' W 090°10'0 0.0
2018-Apr-21 12:58N 38°43' W 090°10'0 0.0
2018-Apr-21 12:28N 38°43' W 090°10'0 0.0
2018-Apr-21 11:49N 38°43' W 090°10'0 0.1
2018-Apr-21 11:22N 38°43' W 090°10'0 0.1
2018-Apr-21 10:58N 38°43' W 090°10'0 0.0
2018-Apr-21 10:25N 38°43' W 090°10'0 0.0
2018-Apr-21 09:58N 38°43' W 090°10'0 0.0
2018-Apr-21 09:25N 38°43' W 090°10'0 0.0
2018-Apr-21 08:58N 38°43' W 090°10'0 0.0
2018-Apr-21 08:13N 38°43' W 090°10'0 0.0
2018-Apr-21 07:40N 38°43' W 090°10'0 0.0
2018-Apr-21 07:16N 38°43' W 090°10'0 0.0
2018-Apr-21 06:55N 38°43' W 090°10'0 0.0
2018-Apr-21 06:28N 38°43' W 090°10'0 0.0
2018-Apr-21 05:52N 38°43' W 090°10'0 0.0
2018-Apr-21 05:16N 38°43' W 090°10'0 0.0
2018-Apr-21 04:52N 38°43' W 090°10'0 0.0
2018-Apr-21 04:25N 38°43' W 090°10'0 0.0
2018-Apr-21 03:40N 38°43' W 090°10'0 0.0
2018-Apr-21 03:25N 38°43' W 090°10'0 0.0
2018-Apr-21 02:55N 38°43' W 090°10'0 0.0
2018-Apr-20 12:10N 38°43' W 090°10'0 0.0
2018-Apr-20 12:01N 38°43' W 090°10'0 0.0
2018-Apr-20 11:28N 38°43' W 090°10'0 0.0
2018-Apr-20 10:58N 38°43' W 090°10'0 0.0
2018-Apr-20 09:52N 38°43' W 090°10'0 0.0
2018-Apr-20 09:31N 38°43' W 090°10'0 0.0
2018-Apr-20 09:01N 38°43' W 090°10'0 0.0
2018-Apr-20 08:16N 38°43' W 090°10'0 0.0
2018-Apr-20 07:55N 38°43' W 090°10'0 0.0
2018-Apr-20 07:25N 38°43' W 090°10'0 0.0
2018-Apr-20 07:01N 38°43' W 090°10'0 0.0
2018-Apr-20 06:10N 38°43' W 090°10'0 0.0
2018-Apr-20 05:52N 38°43' W 090°10'0 0.0
2018-Apr-20 05:31N 38°43' W 090°10'0 0.0
2018-Apr-20 04:37N 38°43' W 090°10'0 0.0
2018-Apr-20 04:31N 38°43' W 090°10'0 0.0
2018-Apr-20 03:49N 38°43' W 090°10'0 0.0
2018-Apr-20 02:37N 38°43' W 090°10'0 0.0
2018-Apr-20 02:16N 38°43' W 090°10'0 0.0
2018-Apr-20 00:55N 38°43' W 090°10'0 0.0
2018-Apr-20 00:27N 38°43' W 090°10'0 0.1
2018-Apr-20 00:00N 38°43' W 090°10'1 1.2
2018-Apr-19 23:27N 38°44' W 090°10'2 5.4
2018-Apr-19 23:00N 38°46' W 090°08'3 5.5
2018-Apr-19 22:30N 38°48' W 090°07'3 6.5
2018-Apr-19 22:00N 38°51' W 090°08'1 2.7
2018-Apr-19 21:30N 38°52' W 090°09'2 3.7
2018-Apr-19 21:00N 38°53' W 090°11'4 8.3
2018-Apr-19 20:30N 38°55' W 090°16'4 7.8
2018-Apr-19 20:00N 38°56' W 090°20'4 8.1
2018-Apr-19 19:31N 38°58' W 090°25'4 7.7
2018-Apr-19 19:00N 38°58' W 090°30'3 5.3
2018-Apr-19 18:30N 38°59' W 090°33'3 6.7
2018-Apr-19 18:01N 39°02' W 090°34'3 5.6
2018-Apr-19 17:29N 39°05' W 090°35'3 6.8
2018-Apr-19 16:59N 39°08' W 090°37'3 6.4
2018-Apr-19 16:29N 39°11' W 090°36'  
Track history (hours):
 
Tides and Currents Weather Stations Pressure Air Temp Water Temp Dewpoint Dewpoint Depression Visibility Wind Speed Wind Dir Waves Ship Positions

Katherine Berry

Owner: Magnolia Marine Transport Co., Vicksburg, MS. More information available from US FCC via Universal Licensing System and Coast Guard Vessel Documentation Center.

Last reported at 2018-Apr-22 07:57 UTC. Time now 2018-Apr-24 12:42 UTC.
Position N 38°36' W 090°12'.

Length 34 m; draft 2.6 m.

Type: Towing. MMSI: 367166940.

Date/timePositionNaut miles runAvg speedWind from/ knotsBaromVisibWave heightAir tempDewpointWater temp
2018-Apr-22 07:57N 38°36' W 090°12'4 9.8
2018-Apr-22 07:30N 38°40' W 090°11'2 3.1
2018-Apr-22 06:50N 38°42' W 090°11'0 1.1
2018-Apr-22 06:30N 38°42' W 090°11'2 3.5
2018-Apr-22 06:00N 38°44' W 090°10'0 0.8
2018-Apr-22 05:30N 38°44' W 090°09'0 0.2
2018-Apr-22 05:00N 38°44' W 090°09'0 0.1
2018-Apr-22 04:29N 38°44' W 090°09'0 0.1
2018-Apr-22 04:00N 38°44' W 090°09'1 2.8
2018-Apr-22 03:30N 38°46' W 090°08'4 7.1
2018-Apr-22 03:00N 38°49' W 090°07'2 4.4
2018-Apr-22 02:30N 38°51' W 090°07'0 0.0
2018-Apr-22 02:00N 38°51' W 090°07'0 0.7
2018-Apr-22 01:30N 38°51' W 090°07'0 0.6
2018-Apr-22 01:00N 38°51' W 090°07'0 0.1
2018-Apr-22 00:30N 38°51' W 090°07'0 0.3
2018-Apr-22 00:00N 38°51' W 090°07'0 0.1
2018-Apr-21 23:28N 38°51' W 090°07'0 1.0
2018-Apr-21 23:00N 38°51' W 090°07'3 5.5
2018-Apr-21 22:30N 38°48' W 090°07'4 6.9
2018-Apr-21 21:58N 38°45' W 090°09'2 0.7
2018-Apr-21 19:13N 38°43' W 090°10'0 0.0
2018-Apr-21 18:40N 38°43' W 090°10'0 0.0
2018-Apr-21 18:22N 38°43' W 090°10'0 0.0
2018-Apr-21 17:58N 38°43' W 090°10'0 0.0
2018-Apr-21 17:28N 38°43' W 090°10'0 0.0
2018-Apr-21 16:58N 38°43' W 090°10'0 0.0
2018-Apr-21 16:28N 38°43' W 090°10'0 0.0
2018-Apr-21 15:40N 38°43' W 090°10'0 0.0
2018-Apr-21 15:28N 38°43' W 090°10'0 0.0
2018-Apr-21 14:58N 38°43' W 090°10'0 0.0
2018-Apr-21 14:28N 38°43' W 090°10'0 0.0
2018-Apr-21 13:58N 38°43' W 090°10'0 0.0
2018-Apr-21 13:25N 38°43' W 090°10'0 0.0
2018-Apr-21 12:58N 38°43' W 090°10'0 0.0
2018-Apr-21 12:28N 38°43' W 090°10'0 0.0
2018-Apr-21 11:49N 38°43' W 090°10'0 0.1
2018-Apr-21 11:22N 38°43' W 090°10'0 0.1
2018-Apr-21 10:58N 38°43' W 090°10'0 0.0
2018-Apr-21 10:25N 38°43' W 090°10'0 0.0
2018-Apr-21 09:58N 38°43' W 090°10'0 0.0
2018-Apr-21 09:25N 38°43' W 090°10'0 0.0
2018-Apr-21 08:58N 38°43' W 090°10'0 0.0
2018-Apr-21 08:13N 38°43' W 090°10'0 0.0
2018-Apr-21 07:40N 38°43' W 090°10'0 0.0
2018-Apr-21 07:16N 38°43' W 090°10'0 0.0
2018-Apr-21 06:55N 38°43' W 090°10'0 0.0
2018-Apr-21 06:28N 38°43' W 090°10'0 0.0
2018-Apr-21 05:52N 38°43' W 090°10'0 0.0
2018-Apr-21 05:16N 38°43' W 090°10'0 0.0
2018-Apr-21 04:52N 38°43' W 090°10'0 0.0
2018-Apr-21 04:25N 38°43' W 090°10'0 0.0
2018-Apr-21 03:40N 38°43' W 090°10'0 0.0
2018-Apr-21 03:25N 38°43' W 090°10'0 0.0
2018-Apr-21 02:55N 38°43' W 090°10'0 0.0
2018-Apr-20 12:10N 38°43' W 090°10'0 0.0
2018-Apr-20 12:01N 38°43' W 090°10'0 0.0
2018-Apr-20 11:28N 38°43' W 090°10'0 0.0
2018-Apr-20 10:58N 38°43' W 090°10'0 0.0
2018-Apr-20 09:52N 38°43' W 090°10'0 0.0
2018-Apr-20 09:31N 38°43' W 090°10'0 0.0
2018-Apr-20 09:01N 38°43' W 090°10'0 0.0
2018-Apr-20 08:16N 38°43' W 090°10'0 0.0
2018-Apr-20 07:55N 38°43' W 090°10'0 0.0
2018-Apr-20 07:25N 38°43' W 090°10'0 0.0
2018-Apr-20 07:01N 38°43' W 090°10'0 0.0
2018-Apr-20 06:10N 38°43' W 090°10'0 0.0
2018-Apr-20 05:52N 38°43' W 090°10'0 0.0
2018-Apr-20 05:31N 38°43' W 090°10'0 0.0
2018-Apr-20 04:37N 38°43' W 090°10'0 0.0
2018-Apr-20 04:31N 38°43' W 090°10'0 0.0
2018-Apr-20 03:49N 38°43' W 090°10'0 0.0
2018-Apr-20 02:37N 38°43' W 090°10'0 0.0
2018-Apr-20 02:16N 38°43' W 090°10'0 0.0
2018-Apr-20 00:55N 38°43' W 090°10'0 0.0
2018-Apr-20 00:27N 38°43' W 090°10'0 0.1
2018-Apr-20 00:00N 38°43' W 090°10'1 1.2
2018-Apr-19 23:27N 38°44' W 090°10'2 5.4
2018-Apr-19 23:00N 38°46' W 090°08'3 5.5
2018-Apr-19 22:30N 38°48' W 090°07'3 6.5
2018-Apr-19 22:00N 38°51' W 090°08'1 2.7
2018-Apr-19 21:30N 38°52' W 090°09'2 3.7
2018-Apr-19 21:00N 38°53' W 090°11'4 8.3
2018-Apr-19 20:30N 38°55' W 090°16'4 7.8
2018-Apr-19 20:00N 38°56' W 090°20'4 8.1
2018-Apr-19 19:31N 38°58' W 090°25'4 7.7
2018-Apr-19 19:00N 38°58' W 090°30'3 5.3
2018-Apr-19 18:30N 38°59' W 090°33'3 6.7
2018-Apr-19 18:01N 39°02' W 090°34'3 5.6
2018-Apr-19 17:29N 39°05' W 090°35'3 6.8
2018-Apr-19 16:59N 39°08' W 090°37'3 6.4
2018-Apr-19 16:29N 39°11' W 090°36'  

Dump ship's entire track history